Hitachimaru — JD2063 — position and weather

sailwx.info

Track history (hours):
 
Tides and Currents Weather Stations Pressure Air Temp Water Temp Dewpoint Dewpoint Depression Visibility Wind Speed Wind Dir Waves Ship Positions

Hitachimaru

Last reported at 2017-Feb-18 10:33 UTC. Time now 2017-Feb-21 05:41 UTC.
Position N 34°06' E 135°02'.

Length 83 m; draft 4.7 m.

Type: Cargo ship. MMSI: 431301756.

Date/timePositionNaut miles runAvg speedWind from/ knotsBaromVisibWave heightAir tempDewpointWater temp
2017-Feb-18 10:33N 34°06' E 135°02'17 0.7
2017-Feb-17 09:18N 34°23' E 135°08'810.1
2017-Feb-17 08:32N 34°30' E 135°06'12410.2
2017-Feb-16 20:17N 34°03' E 132°39'5 0.2
2017-Feb-15 17:32N 34°02' E 132°33'1212.5
2017-Feb-15 16:33N 34°08' E 132°46'115 4.6
2017-Feb-14 15:26N 34°37' E 135°01'910.4
2017-Feb-14 14:32N 34°28' E 135°03'1412.2
2017-Feb-14 13:24N 34°14' E 134°59'1011.7
2017-Feb-14 12:33N 34°05' E 135°00'  
2017-Feb-11 15:15N 35°16' E 139°46'811.2
2017-Feb-11 14:33N 35°24' E 139°43'1111.3
2017-Feb-11 13:33N 35°32' E 139°52'2 0.3
2017-Feb-11 06:21N 35°34' E 139°54'0 0.0
2017-Feb-11 05:18N 35°34' E 139°54'0 0.0
2017-Feb-11 01:30N 35°34' E 139°54'0 0.0
2017-Feb-10 23:15N 35°34' E 139°54'0 0.0
2017-Feb-10 22:12N 35°34' E 139°54'0 0.0
2017-Feb-10 20:18N 35°34' E 139°54'0 0.0
2017-Feb-10 19:33N 35°34' E 139°54'0 0.0
2017-Feb-10 18:30N 35°34' E 139°54'0 0.0
2017-Feb-10 05:12N 35°34' E 139°54'0 0.0
2017-Feb-09 23:30N 35°34' E 139°54'0 0.0
2017-Feb-09 20:29N 35°34' E 139°54'0 0.0
2017-Feb-09 19:32N 35°34' E 139°54'0 0.0
2017-Feb-09 17:32N 35°34' E 139°54'0 0.0
2017-Feb-09 15:14N 35°34' E 139°54'0 0.0
2017-Feb-09 10:26N 35°34' E 139°54'9 9.8
2017-Feb-09 09:33N 35°26' E 139°49'9 9.6
2017-Feb-09 08:34N 35°17' E 139°46'1110.5
2017-Feb-09 07:32N 35°06' E 139°45'  
Track history (hours):
 
Tides and Currents Weather Stations Pressure Air Temp Water Temp Dewpoint Dewpoint Depression Visibility Wind Speed Wind Dir Waves Ship Positions

Hitachimaru

Last reported at 2017-Feb-18 10:33 UTC. Time now 2017-Feb-21 05:41 UTC.
Position N 34°06' E 135°02'.

Length 83 m; draft 4.7 m.

Type: Cargo ship. MMSI: 431301756.

Date/timePositionNaut miles runAvg speedWind from/ knotsBaromVisibWave heightAir tempDewpointWater temp
2017-Feb-18 10:33N 34°06' E 135°02'17 0.7
2017-Feb-17 09:18N 34°23' E 135°08'810.1
2017-Feb-17 08:32N 34°30' E 135°06'12410.2
2017-Feb-16 20:17N 34°03' E 132°39'5 0.2
2017-Feb-15 17:32N 34°02' E 132°33'1212.5
2017-Feb-15 16:33N 34°08' E 132°46'115 4.6
2017-Feb-14 15:26N 34°37' E 135°01'910.4
2017-Feb-14 14:32N 34°28' E 135°03'1412.2
2017-Feb-14 13:24N 34°14' E 134°59'1011.7
2017-Feb-14 12:33N 34°05' E 135°00'  
2017-Feb-11 15:15N 35°16' E 139°46'811.2
2017-Feb-11 14:33N 35°24' E 139°43'1111.3
2017-Feb-11 13:33N 35°32' E 139°52'2 0.3
2017-Feb-11 06:21N 35°34' E 139°54'0 0.0
2017-Feb-11 05:18N 35°34' E 139°54'0 0.0
2017-Feb-11 01:30N 35°34' E 139°54'0 0.0
2017-Feb-10 23:15N 35°34' E 139°54'0 0.0
2017-Feb-10 22:12N 35°34' E 139°54'0 0.0
2017-Feb-10 20:18N 35°34' E 139°54'0 0.0
2017-Feb-10 19:33N 35°34' E 139°54'0 0.0
2017-Feb-10 18:30N 35°34' E 139°54'0 0.0
2017-Feb-10 05:12N 35°34' E 139°54'0 0.0
2017-Feb-09 23:30N 35°34' E 139°54'0 0.0
2017-Feb-09 20:29N 35°34' E 139°54'0 0.0
2017-Feb-09 19:32N 35°34' E 139°54'0 0.0
2017-Feb-09 17:32N 35°34' E 139°54'0 0.0
2017-Feb-09 15:14N 35°34' E 139°54'0 0.0
2017-Feb-09 10:26N 35°34' E 139°54'9 9.8
2017-Feb-09 09:33N 35°26' E 139°49'9 9.6
2017-Feb-09 08:34N 35°17' E 139°46'1110.5
2017-Feb-09 07:32N 35°06' E 139°45'  

Dump ship's entire track history